createdAt,value
2023-04-11T00:00:28.477Z,31.69
2023-04-11T00:01:27.773Z,31.65
2023-04-11T00:02:28.098Z,31.70
2023-04-11T00:03:28.163Z,31.74
2023-04-11T00:04:28.900Z,31.74
2023-04-11T00:05:27.953Z,31.76
2023-04-11T00:06:28.392Z,31.70
2023-04-11T00:07:27.991Z,31.70
2023-04-11T00:08:28.016Z,31.76
2023-04-11T00:09:28.030Z,31.79
2023-04-11T00:10:28.102Z,31.70
2023-04-11T00:11:28.132Z,31.77
2023-04-11T00:12:28.132Z,31.76
2023-04-11T00:13:28.370Z,31.73
2023-04-11T00:14:28.188Z,31.75
2023-04-11T00:15:28.235Z,31.78
2023-04-11T00:16:28.324Z,31.70
2023-04-11T00:17:28.910Z,31.73
2023-04-11T00:18:28.413Z,31.68
2023-04-11T00:19:28.381Z,31.77
2023-04-11T00:20:28.438Z,31.74
2023-04-11T00:21:28.432Z,31.76
2023-04-11T00:22:28.481Z,31.66
2023-04-11T00:23:28.504Z,31.67
2023-04-11T00:24:28.534Z,31.75
2023-04-11T00:25:28.565Z,31.72
2023-04-11T00:26:28.606Z,31.70
2023-04-11T00:27:28.878Z,31.69
2023-04-11T00:28:28.676Z,31.72
2023-04-11T00:29:30.470Z,31.73
2023-04-11T00:30:28.733Z,31.82
2023-04-11T00:31:28.814Z,31.72
2023-04-11T00:32:28.902Z,31.74
2023-04-11T00:33:28.845Z,31.77
2023-04-11T00:34:28.911Z,31.88
2023-04-11T00:35:28.910Z,31.86
2023-04-11T00:36:29.008Z,31.73
2023-04-11T00:37:29.007Z,31.68
2023-04-11T00:38:29.088Z,31.71
2023-04-11T00:39:29.065Z,31.71
2023-04-11T00:40:29.169Z,31.74
2023-04-11T00:41:29.130Z,31.76
2023-04-11T00:42:29.241Z,31.72
2023-04-11T00:43:29.276Z,31.86
2023-04-11T00:44:29.226Z,31.79
2023-04-11T00:45:29.379Z,31.69
2023-04-11T00:46:29.320Z,31.69
2023-04-11T00:47:29.339Z,31.77
2023-04-11T00:48:29.460Z,31.75
2023-04-11T00:49:29.399Z,31.75
2023-04-11T00:50:29.504Z,31.72
2023-04-11T00:51:29.478Z,31.72
2023-04-11T00:52:30.352Z,31.75
2023-04-11T00:53:29.555Z,31.74
2023-04-11T00:54:29.672Z,31.71
2023-04-11T00:55:29.630Z,31.71
2023-04-11T00:56:30.358Z,31.78
2023-04-11T00:57:29.735Z,31.70
2023-04-11T00:58:29.759Z,31.66
2023-04-11T00:59:29.766Z,31.71
2023-04-11T01:00:29.865Z,31.76
2023-04-11T01:01:30.429Z,31.79
2023-04-11T01:02:30.412Z,31.71
2023-04-11T01:03:30.140Z,31.75
2023-04-11T01:04:29.966Z,31.77
2023-04-11T01:05:29.983Z,31.78
2023-04-11T01:06:30.031Z,31.75
2023-04-11T01:07:30.096Z,31.71
2023-04-11T01:08:30.090Z,31.74
2023-04-11T01:09:30.162Z,31.72
2023-04-11T01:10:30.209Z,31.72
2023-04-11T01:11:30.202Z,31.82
2023-04-11T01:12:30.269Z,31.80
2023-04-11T01:13:30.300Z,31.75
2023-04-11T01:14:30.360Z,31.69
2023-04-11T01:15:30.358Z,31.73
2023-04-11T01:16:30.477Z,31.76
2023-04-11T01:17:33.439Z,31.70
2023-04-11T01:18:30.388Z,31.76
2023-04-11T01:19:30.401Z,31.83
2023-04-11T01:20:30.431Z,31.84
2023-04-11T01:21:30.367Z,31.86
2023-04-11T01:22:30.418Z,31.80
2023-04-11T01:23:30.368Z,31.79
2023-04-11T01:24:30.396Z,31.85
2023-04-11T01:25:30.387Z,31.76
2023-04-11T01:26:30.388Z,31.76
2023-04-11T01:27:30.349Z,31.77
2023-04-11T01:28:30.364Z,31.73
2023-04-11T01:29:30.314Z,31.74
2023-04-11T01:30:30.488Z,31.75
2023-04-11T01:31:30.377Z,31.81
2023-04-11T01:32:30.354Z,31.80
2023-04-11T01:33:30.336Z,31.74
2023-04-11T01:34:30.317Z,31.79
2023-04-11T01:35:30.359Z,31.78
2023-04-11T01:36:30.341Z,31.84
2023-04-11T01:37:30.317Z,31.77
2023-04-11T01:38:30.285Z,31.85
2023-04-11T01:39:30.309Z,31.83
2023-04-11T01:40:30.252Z,31.82
2023-04-11T01:41:30.279Z,31.86
2023-04-11T01:42:30.256Z,31.84
2023-04-11T01:43:30.250Z,31.90
2023-04-11T01:44:30.232Z,31.91
2023-04-11T01:45:30.221Z,31.78
2023-04-11T01:46:30.254Z,31.78
2023-04-11T01:47:30.380Z,31.84
2023-04-11T01:48:30.332Z,31.89
2023-04-11T01:49:30.243Z,31.88
2023-04-11T01:50:30.221Z,31.86
2023-04-11T01:51:30.201Z,31.81
2023-04-11T01:52:30.214Z,31.90
2023-04-11T01:53:30.294Z,31.85
2023-04-11T01:54:30.174Z,31.94
2023-04-11T01:55:30.201Z,31.97
2023-04-11T01:56:30.165Z,31.95
2023-04-11T01:57:30.183Z,31.84
2023-04-11T01:58:30.170Z,31.82
2023-04-11T01:59:30.168Z,31.77
2023-04-11T02:00:30.203Z,31.88
2023-04-11T02:01:30.157Z,31.90
2023-04-11T02:02:30.587Z,31.86
2023-04-11T02:03:30.345Z,31.89
2023-04-11T02:04:30.194Z,31.89
2023-04-11T02:05:30.108Z,31.82
2023-04-11T02:06:30.091Z,31.83
2023-04-11T02:07:30.080Z,31.84
2023-04-11T02:08:30.121Z,31.78
2023-04-11T02:09:30.080Z,31.85
2023-04-11T02:10:30.044Z,31.86
2023-04-11T02:11:30.064Z,31.85
2023-04-11T02:12:30.115Z,31.82
2023-04-11T02:13:30.054Z,31.84
2023-04-11T02:14:30.037Z,31.77
2023-04-11T02:15:30.044Z,31.80
2023-04-11T02:16:30.185Z,31.84
2023-04-11T02:17:30.100Z,31.87
2023-04-11T02:18:30.036Z,31.85
2023-04-11T02:19:30.068Z,31.76
2023-04-11T02:20:30.123Z,31.75
2023-04-11T02:21:30.240Z,31.82
2023-04-11T02:22:30.180Z,31.83
2023-04-11T02:23:30.882Z,31.82
2023-04-11T02:24:30.221Z,31.89
2023-04-11T02:25:30.269Z,31.80
2023-04-11T02:26:30.282Z,31.85
2023-04-11T02:27:30.545Z,31.88
2023-04-11T02:28:30.408Z,31.81
2023-04-11T02:29:30.390Z,31.88
2023-04-11T02:30:30.415Z,31.81
2023-04-11T02:31:30.605Z,31.86
2023-04-11T02:32:30.584Z,31.77
2023-04-11T02:33:30.525Z,31.87
2023-04-11T02:34:30.536Z,31.87
2023-04-11T02:35:30.616Z,31.86
2023-04-11T02:36:30.586Z,31.80
2023-04-11T02:37:30.642Z,31.84
2023-04-11T02:38:30.687Z,31.93
2023-04-11T02:39:30.798Z,31.90
2023-04-11T02:40:30.722Z,31.90
2023-04-11T02:41:30.794Z,31.83
2023-04-11T02:42:30.794Z,31.91
2023-04-11T02:43:30.882Z,31.93
2023-04-11T02:44:30.890Z,31.83
2023-04-11T02:45:30.949Z,31.89
2023-04-11T02:46:31.070Z,31.95
2023-04-11T02:47:31.008Z,31.90
2023-04-11T02:48:31.029Z,31.83
2023-04-11T02:49:31.047Z,31.84
2023-04-11T02:50:31.091Z,31.80
2023-04-11T02:51:31.089Z,31.76
2023-04-11T02:52:31.136Z,31.79
2023-04-11T02:53:31.948Z,31.82
2023-04-11T02:54:31.191Z,31.83
2023-04-11T02:55:31.266Z,31.91
2023-04-11T02:56:31.346Z,31.82
2023-04-11T02:57:31.310Z,31.96
2023-04-11T02:58:31.355Z,31.89
2023-04-11T02:59:31.369Z,31.83
2023-04-11T03:00:31.442Z,31.83
2023-04-11T03:01:31.470Z,31.87
2023-04-11T03:02:31.577Z,31.80
2023-04-11T03:03:31.733Z,31.84
2023-04-11T03:04:31.718Z,31.84
2023-04-11T03:05:31.601Z,31.83
2023-04-11T03:06:31.595Z,31.89
2023-04-11T03:07:32.421Z,31.86
2023-04-11T03:08:31.671Z,31.95
2023-04-11T03:09:31.706Z,32.02
2023-04-11T03:10:31.735Z,31.99
2023-04-11T03:11:31.785Z,32.03
2023-04-11T03:12:31.786Z,31.93
2023-04-11T03:13:31.818Z,31.92
2023-04-11T03:14:31.866Z,31.91
2023-04-11T03:15:31.895Z,31.91
2023-04-11T03:16:31.949Z,31.85
2023-04-11T03:17:31.939Z,31.87
2023-04-11T03:18:32.169Z,31.89
2023-04-11T03:19:32.032Z,31.86
2023-04-11T03:20:32.047Z,31.93
2023-04-11T03:21:32.088Z,31.94
2023-04-11T03:22:32.236Z,31.90
2023-04-11T03:23:32.412Z,31.85
2023-04-11T03:24:32.199Z,31.87
2023-04-11T03:25:32.220Z,31.88
2023-04-11T03:26:32.307Z,31.91
2023-04-11T03:27:32.310Z,31.91
2023-04-11T03:28:32.456Z,31.91
2023-04-11T03:29:32.360Z,31.97
2023-04-11T03:30:32.370Z,31.93
2023-04-11T03:31:32.469Z,31.92
2023-04-11T03:32:32.444Z,31.94
2023-04-11T03:33:32.487Z,31.98
2023-04-11T03:34:32.552Z,31.90
2023-04-11T03:35:32.544Z,31.94
2023-04-11T03:36:32.594Z,31.92
2023-04-11T03:37:32.639Z,31.97
2023-04-11T03:38:33.454Z,31.99
2023-04-11T03:39:32.678Z,31.90
2023-04-11T03:40:32.717Z,31.86
2023-04-11T03:41:32.774Z,31.97
2023-04-11T03:42:32.843Z,31.98
2023-04-11T03:43:32.986Z,31.91
2023-04-11T03:44:32.885Z,31.94
2023-04-11T03:45:32.891Z,31.92
2023-04-11T03:46:32.934Z,31.91
2023-04-11T03:47:33.018Z,31.93
2023-04-11T03:48:33.410Z,31.92
2023-04-11T03:49:33.031Z,31.91
2023-04-11T03:50:33.054Z,31.89
2023-04-11T03:51:33.932Z,31.92
2023-04-11T03:52:33.186Z,31.93
2023-04-11T03:53:33.197Z,31.91
2023-04-11T03:54:33.189Z,31.94
2023-04-11T03:55:33.240Z,31.91
2023-04-11T03:56:33.308Z,31.96
2023-04-11T03:57:33.359Z,31.98
2023-04-11T03:58:33.340Z,31.94
2023-04-11T03:59:33.421Z,31.94
2023-04-11T04:00:33.434Z,31.95
2023-04-11T04:01:33.521Z,31.90
2023-04-11T04:02:33.650Z,31.92
2023-04-11T04:03:33.805Z,31.94
2023-04-11T04:04:33.632Z,31.94
2023-04-11T04:05:33.588Z,31.96
2023-04-11T04:06:33.641Z,31.94
2023-04-11T04:07:33.659Z,31.93
2023-04-11T04:08:33.738Z,31.93
2023-04-11T04:09:33.744Z,31.90
2023-04-11T04:10:33.763Z,31.94
2023-04-11T04:11:33.818Z,31.92
2023-04-11T04:12:36.440Z,31.92
2023-04-11T04:13:34.128Z,31.98
2023-04-11T04:14:34.103Z,31.92
2023-04-11T04:15:34.176Z,31.94
2023-04-11T04:16:34.258Z,31.94
2023-04-11T04:17:34.319Z,31.98
2023-04-11T04:18:34.273Z,31.92
2023-04-11T04:19:34.282Z,31.96
2023-04-11T04:20:34.352Z,31.97
2023-04-11T04:21:34.379Z,31.93
2023-04-11T04:22:34.447Z,31.99
2023-04-11T04:23:34.458Z,31.95
2023-04-11T04:24:34.540Z,31.93
2023-04-11T04:25:34.576Z,31.99
2023-04-11T04:26:34.582Z,31.98
2023-04-11T04:27:34.717Z,32.01
2023-04-11T04:28:34.720Z,32.00
2023-04-11T04:29:37.493Z,31.95
2023-04-11T04:30:34.703Z,31.96
2023-04-11T04:31:34.766Z,31.96
2023-04-11T04:32:34.681Z,31.97
2023-04-11T04:33:34.777Z,31.96
2023-04-11T04:34:34.685Z,31.96
2023-04-11T04:35:34.674Z,31.96
2023-04-11T04:36:34.647Z,31.97
2023-04-11T04:37:34.698Z,31.93
2023-04-11T04:38:34.642Z,31.99
2023-04-11T04:39:34.715Z,31.99
2023-04-11T04:40:34.674Z,31.93
2023-04-11T04:41:35.467Z,32.02
2023-04-11T04:42:34.614Z,32.02
2023-04-11T04:43:34.620Z,31.99
2023-04-11T04:44:35.476Z,31.99
2023-04-11T04:45:34.649Z,31.95
2023-04-11T04:46:34.596Z,32.00
2023-04-11T04:47:34.805Z,31.94
2023-04-11T04:48:34.620Z,31.92
2023-04-11T04:49:34.691Z,31.93
2023-04-11T04:50:34.554Z,31.97
2023-04-11T04:51:34.586Z,31.94
2023-04-11T04:52:34.847Z,31.91
2023-04-11T04:53:34.681Z,31.91
2023-04-11T04:54:34.525Z,31.94
2023-04-11T04:55:34.530Z,31.93
2023-04-11T04:56:34.504Z,31.91
2023-04-11T04:57:34.529Z,31.91
2023-04-11T04:58:34.530Z,31.91
2023-04-11T04:59:34.533Z,31.95
2023-04-11T05:00:34.538Z,31.94
2023-04-11T05:01:34.538Z,31.90
2023-04-11T05:02:34.612Z,31.90
2023-04-11T05:03:34.675Z,31.88
2023-04-11T05:04:34.524Z,31.82
2023-04-11T05:05:34.471Z,31.86
2023-04-11T05:06:34.564Z,31.85
2023-04-11T05:07:34.465Z,31.81
2023-04-11T05:08:34.495Z,31.95
2023-04-11T05:09:34.430Z,31.85
2023-04-11T05:10:34.461Z,31.93
2023-04-11T05:11:34.958Z,31.89
2023-04-11T05:12:37.037Z,31.81
2023-04-11T05:13:35.456Z,31.82
2023-04-11T05:14:35.458Z,31.86
2023-04-11T05:15:36.548Z,31.79
2023-04-11T05:16:34.803Z,31.82
2023-04-11T05:17:35.490Z,31.84
2023-04-11T05:18:34.915Z,31.85
2023-04-11T05:19:35.568Z,31.83
2023-04-11T05:20:34.951Z,31.82
2023-04-11T05:21:34.996Z,31.78
2023-04-11T05:22:35.113Z,31.84
2023-04-11T05:23:35.677Z,31.85
2023-04-11T05:24:35.097Z,31.83
2023-04-11T05:25:35.153Z,31.84
2023-04-11T05:26:35.186Z,31.86
2023-04-11T05:27:35.237Z,31.84
2023-04-11T05:28:35.369Z,31.87
2023-04-11T05:29:36.091Z,31.92
2023-04-11T05:30:35.418Z,31.95
2023-04-11T05:31:36.948Z,31.95
2023-04-11T05:32:35.498Z,31.95
2023-04-11T05:33:35.555Z,31.97
2023-04-11T05:34:35.718Z,32.12
2023-04-11T05:35:37.729Z,32.46
2023-04-11T05:36:36.130Z,32.23
2023-04-11T05:37:36.663Z,32.55
